PWSweather.com
Personal Weather Stations
Station Observations
WD4JKH
Forsyth, GA 31029

Forsyth, GA 31029

Lat: 33.033225, Lon: -83.927995

Elevation: 709

Station Type: Davis Vantage VUE

High Low Average
Temperature 47.2°F8.4°C 40.0°F4.4°C 43.9°F6.6°C
Dew Point 46.6°F8.1°C 38.9°F3.8°C 43.1°F6.2°C
Winds 8.3 mph 13.4 kmh 1.1 mph 1.8 kmh 3.0 mph NE4.8 kmh NE
Wind Gusts 18.0 mph29.0 kmh 4.0 mph6.4 kmh 11.0 mph17.7 kmh
Humidity 98% 94% 97%
Pressure 30.23 in1023.7 mb 30.06 in1017.9 mb -
Precipitation 1.48 in37.6 mm - -
Hour Temp Dew Point Humidity Winds Wind Gusts Pressure Precip Precip Rate Daily Precip Total
12:00 AM 40.0°F4.4°C 39.0°F3.9°C 96% 1.6 mph NNE2.6 kmh NNE 9.0 mph14.5 kmh 30.23 in1023.7 mb 0.10 in2.5 mm 0.00 in0.0 mm 0.21 in5.3 mm
12:05 AM 40.0°F4.4°C 38.9°F3.8°C 96% 3.6 mph NNE5.8 kmh NNE 9.0 mph14.5 kmh 30.23 in1023.7 mb 0.10 in2.5 mm 0.00 in0.0 mm 0.01 in0.3 mm
12:10 AM 40.0°F4.4°C 38.9°F3.8°C 96% 3.1 mph NNE5.0 kmh NNE 10.0 mph16.1 kmh 30.23 in1023.7 mb 0.10 in2.5 mm 0.00 in0.0 mm 0.02 in0.5 mm
12:15 AM 40.1°F4.5°C 39.0°F3.9°C 96% 2.0 mph NE3.2 kmh NE 10.0 mph16.1 kmh 30.23 in1023.7 mb 0.11 in2.8 mm 0.12 in3.0 mm 0.03 in0.8 mm
12:20 AM 40.1°F4.5°C 39.0°F3.9°C 96% 3.2 mph NE5.1 kmh NE 10.0 mph16.1 kmh 30.23 in1023.7 mb 0.12 in3.0 mm 0.12 in3.0 mm 0.04 in1.0 mm
12:25 AM 40.1°F4.5°C 39.1°F3.9°C 96% 3.2 mph NE5.1 kmh NE 10.0 mph16.1 kmh 30.23 in1023.7 mb 0.12 in3.0 mm 0.00 in0.0 mm 0.05 in1.3 mm
12:30 AM 40.2°F4.6°C 39.1°F3.9°C 96% 1.7 mph NNE2.7 kmh NNE 9.0 mph14.5 kmh 30.23 in1023.7 mb 0.12 in3.0 mm 0.00 in0.0 mm 0.06 in1.5 mm
12:35 AM 40.2°F4.6°C 39.1°F3.9°C 96% 2.1 mph NNE3.4 kmh NNE 7.0 mph11.3 kmh 30.23 in1023.7 mb 0.13 in3.3 mm 0.12 in3.0 mm 0.08 in2.0 mm
12:40 AM 40.2°F4.6°C 39.4°F4.1°C 97% 2.1 mph NNE3.4 kmh NNE 7.0 mph11.3 kmh 30.23 in1023.7 mb 0.13 in3.3 mm 0.00 in0.0 mm 0.09 in2.3 mm
12:45 AM 40.2°F4.6°C 39.4°F4.1°C 97% 2.4 mph NNE3.9 kmh NNE 7.0 mph11.3 kmh 30.23 in1023.7 mb 0.13 in3.3 mm 0.00 in0.0 mm 0.10 in2.5 mm
12:50 AM 40.3°F4.6°C 39.5°F4.2°C 97% 2.7 mph NE4.3 kmh NE 8.0 mph12.9 kmh 30.23 in1023.7 mb 0.13 in3.3 mm 0.00 in0.0 mm 0.11 in2.8 mm
12:55 AM 40.3°F4.6°C 39.5°F4.2°C 97% 2.7 mph NNE4.3 kmh NNE 8.0 mph12.9 kmh 30.22 in1023.4 mb 0.14 in3.6 mm 0.12 in3.0 mm 0.13 in3.3 mm
01:00 AM 40.3°F4.6°C 39.5°F4.2°C 97% 1.5 mph NE2.4 kmh NE 8.0 mph12.9 kmh 30.22 in1023.4 mb 0.14 in3.6 mm 0.00 in0.0 mm 0.14 in3.6 mm
01:05 AM 40.4°F4.7°C 39.6°F4.2°C 97% 1.4 mph NE2.3 kmh NE 8.0 mph12.9 kmh 30.22 in1023.4 mb 0.14 in3.6 mm 0.00 in0.0 mm 0.15 in3.8 mm
01:10 AM 40.4°F4.7°C 39.6°F4.2°C 97% 1.7 mph NNE2.7 kmh NNE 6.0 mph9.7 kmh 30.22 in1023.4 mb 0.13 in3.3 mm 0.00 in0.0 mm 0.15 in3.8 mm
01:15 AM 40.4°F4.7°C 39.6°F4.2°C 97% 1.2 mph N1.9 kmh N 5.0 mph8.0 kmh 30.22 in1023.4 mb 0.13 in3.3 mm 0.00 in0.0 mm 0.16 in4.1 mm
01:20 AM 40.4°F4.7°C 39.6°F4.2°C 97% 1.6 mph NNW2.6 kmh NNW 4.0 mph6.4 kmh 30.22 in1023.4 mb 0.12 in3.0 mm 0.00 in0.0 mm 0.16 in4.1 mm
01:25 AM 40.5°F4.7°C 39.7°F4.3°C 97% 1.8 mph NNE2.9 kmh NNE 4.0 mph6.4 kmh 30.21 in1023.0 mb 0.12 in3.0 mm 0.00 in0.0 mm 0.17 in4.3 mm
01:30 AM 40.6°F4.8°C 39.8°F4.3°C 97% 1.3 mph N2.1 kmh N 4.0 mph6.4 kmh 30.21 in1023.0 mb 0.12 in3.0 mm 0.00 in0.0 mm 0.18 in4.6 mm
01:35 AM 40.6°F4.8°C 39.8°F4.3°C 97% 2.1 mph NNE3.4 kmh NNE 5.0 mph8.0 kmh 30.21 in1023.0 mb 0.11 in2.8 mm 0.00 in0.0 mm 0.19 in4.8 mm
01:40 AM 40.7°F4.8°C 39.9°F4.4°C 97% 2.3 mph NNE3.7 kmh NNE 6.0 mph9.7 kmh 30.21 in1023.0 mb 0.11 in2.8 mm 0.00 in0.0 mm 0.20 in5.1 mm
01:45 AM 40.7°F4.8°C 39.9°F4.4°C 97% 2.1 mph NNE3.4 kmh NNE 6.0 mph9.7 kmh 30.20 in1022.7 mb 0.12 in3.0 mm 0.12 in3.0 mm 0.22 in5.6 mm
01:50 AM 40.8°F4.9°C 40.0°F4.4°C 97% 3.1 mph NNE5.0 kmh NNE 6.0 mph9.7 kmh 30.20 in1022.7 mb 0.12 in3.0 mm 0.00 in0.0 mm 0.23 in5.8 mm
01:55 AM 40.9°F4.9°C 40.1°F4.5°C 97% 2.5 mph NNE4.0 kmh NNE 8.0 mph12.9 kmh 30.20 in1022.7 mb 0.10 in2.5 mm 0.00 in0.0 mm 0.23 in5.8 mm
02:00 AM 40.9°F4.9°C 40.1°F4.5°C 97% 3.6 mph NE5.8 kmh NE 8.0 mph12.9 kmh 30.19 in1022.4 mb 0.10 in2.5 mm 0.00 in0.0 mm 0.24 in6.1 mm
02:05 AM 41.0°F5.0°C 40.2°F4.6°C 97% 2.7 mph NNE4.3 kmh NNE 8.0 mph12.9 kmh 30.20 in1022.7 mb 0.09 in2.3 mm 0.00 in0.0 mm 0.24 in6.1 mm
02:10 AM 41.1°F5.1°C 40.3°F4.6°C 97% 3.1 mph NE5.0 kmh NE 9.0 mph14.5 kmh 30.20 in1022.7 mb 0.10 in2.5 mm 0.12 in3.0 mm 0.25 in6.4 mm
02:15 AM 41.1°F5.1°C 40.3°F4.6°C 97% 2.8 mph N4.5 kmh N 9.0 mph14.5 kmh 30.20 in1022.7 mb 0.09 in2.3 mm 0.00 in0.0 mm 0.25 in6.4 mm
02:20 AM 41.2°F5.1°C 40.4°F4.7°C 97% 2.4 mph NE3.9 kmh NE 9.0 mph14.5 kmh 30.19 in1022.4 mb 0.10 in2.5 mm 0.12 in3.0 mm 0.26 in6.6 mm
02:25 AM 41.2°F5.1°C 40.4°F4.7°C 97% 3.0 mph N4.8 kmh N 9.0 mph14.5 kmh 30.19 in1022.4 mb 0.09 in2.3 mm 0.00 in0.0 mm 0.26 in6.6 mm
02:30 AM 41.2°F5.1°C 40.4°F4.7°C 97% 3.3 mph NNE5.3 kmh NNE 9.0 mph14.5 kmh 30.19 in1022.4 mb 0.09 in2.3 mm 0.00 in0.0 mm 0.27 in6.9 mm
02:35 AM 41.3°F5.2°C 40.5°F4.7°C 97% 2.1 mph N3.4 kmh N 9.0 mph14.5 kmh 30.19 in1022.4 mb 0.09 in2.3 mm 0.00 in0.0 mm 0.28 in7.1 mm
02:40 AM 41.3°F5.2°C 40.5°F4.7°C 97% 2.3 mph NNE3.7 kmh NNE 9.0 mph14.5 kmh 30.19 in1022.4 mb 0.08 in2.0 mm 0.00 in0.0 mm 0.28 in7.1 mm
02:45 AM 41.4°F5.2°C 40.6°F4.8°C 97% 2.1 mph NNE3.4 kmh NNE 9.0 mph14.5 kmh 30.19 in1022.4 mb 0.07 in1.8 mm 0.00 in0.0 mm 0.29 in7.4 mm
02:50 AM 41.5°F5.3°C 40.7°F4.8°C 97% 2.9 mph NNE4.7 kmh NNE 7.0 mph11.3 kmh 30.19 in1022.4 mb 0.06 in1.5 mm 0.00 in0.0 mm 0.29 in7.4 mm
02:55 AM 41.5°F5.3°C 40.7°F4.8°C 97% 3.0 mph NE4.8 kmh NE 7.0 mph11.3 kmh 30.19 in1022.4 mb 0.07 in1.8 mm 0.12 in3.0 mm 0.30 in7.6 mm
03:00 AM 41.6°F5.3°C 40.8°F4.9°C 97% 2.4 mph NNE3.9 kmh NNE 9.0 mph14.5 kmh 30.18 in1022.0 mb 0.06 in1.5 mm 0.00 in0.0 mm 0.30 in7.6 mm
03:05 AM 41.6°F5.3°C 40.8°F4.9°C 97% 2.3 mph NE3.7 kmh NE 9.0 mph14.5 kmh 30.18 in1022.0 mb 0.06 in1.5 mm 0.00 in0.0 mm 0.30 in7.6 mm
03:10 AM 41.6°F5.3°C 40.8°F4.9°C 97% 2.9 mph NNE4.7 kmh NNE 11.0 mph17.7 kmh 30.18 in1022.0 mb 0.06 in1.5 mm 0.00 in0.0 mm 0.31 in7.9 mm
03:15 AM 41.7°F5.4°C 40.9°F4.9°C 97% 4.7 mph NNE7.6 kmh NNE 11.0 mph17.7 kmh 30.18 in1022.0 mb 0.06 in1.5 mm 0.00 in0.0 mm 0.31 in7.9 mm
03:20 AM 41.8°F5.4°C 41.0°F5.0°C 97% 2.9 mph NNE4.7 kmh NNE 11.0 mph17.7 kmh 30.18 in1022.0 mb 0.05 in1.3 mm 0.00 in0.0 mm 0.31 in7.9 mm
03:25 AM 41.8°F5.4°C 41.0°F5.0°C 97% 2.9 mph NNE4.7 kmh NNE 10.0 mph16.1 kmh 30.17 in1021.7 mb 0.05 in1.3 mm 0.00 in0.0 mm 0.31 in7.9 mm
03:30 AM 41.9°F5.5°C 41.1°F5.1°C 97% 2.8 mph NNE4.5 kmh NNE 10.0 mph16.1 kmh 30.18 in1022.0 mb 0.05 in1.3 mm 0.00 in0.0 mm 0.32 in8.1 mm
03:35 AM 41.9°F5.5°C 41.1°F5.1°C 97% 3.8 mph N6.1 kmh N 9.0 mph14.5 kmh 30.18 in1022.0 mb 0.04 in1.0 mm 0.00 in0.0 mm 0.32 in8.1 mm
03:40 AM 42.0°F5.6°C 41.2°F5.1°C 97% 1.7 mph NNE2.7 kmh NNE 9.0 mph14.5 kmh 30.18 in1022.0 mb 0.04 in1.0 mm 0.00 in0.0 mm 0.32 in8.1 mm
03:45 AM 42.0°F5.6°C 41.2°F5.1°C 97% 2.5 mph NNE4.0 kmh NNE 9.0 mph14.5 kmh 30.17 in1021.7 mb 0.04 in1.0 mm 0.00 in0.0 mm 0.33 in8.4 mm
03:50 AM 42.1°F5.6°C 41.3°F5.2°C 97% 2.7 mph NE4.3 kmh NE 8.0 mph12.9 kmh 30.18 in1022.0 mb 0.04 in1.0 mm 0.00 in0.0 mm 0.33 in8.4 mm
03:55 AM 42.1°F5.6°C 41.3°F5.2°C 97% 2.2 mph NNE3.5 kmh NNE 8.0 mph12.9 kmh 30.18 in1022.0 mb 0.03 in0.8 mm 0.00 in0.0 mm 0.33 in8.4 mm
03:59 AM 42.2°F5.7°C 41.4°F5.2°C 97% 3.3 mph NNE5.3 kmh NNE 8.0 mph12.9 kmh 30.18 in1022.0 mb 0.04 in1.0 mm 0.15 in3.8 mm 0.34 in8.6 mm
04:04 AM 42.2°F5.7°C 41.4°F5.2°C 97% 3.4 mph NE5.5 kmh NE 8.0 mph12.9 kmh 30.17 in1021.7 mb 0.04 in1.0 mm 0.00 in0.0 mm 0.34 in8.6 mm
04:09 AM 42.3°F5.7°C 41.5°F5.3°C 97% 2.8 mph NNE4.5 kmh NNE 8.0 mph12.9 kmh 30.18 in1022.0 mb 0.04 in1.0 mm 0.00 in0.0 mm 0.35 in8.9 mm
04:14 AM 42.3°F5.7°C 41.5°F5.3°C 97% 1.5 mph NE2.4 kmh NE 7.0 mph11.3 kmh 30.18 in1022.0 mb 0.05 in1.3 mm 0.12 in3.0 mm 0.36 in9.1 mm
04:19 AM 42.4°F5.8°C 41.6°F5.3°C 97% 2.3 mph NNE3.7 kmh NNE 7.0 mph11.3 kmh 30.18 in1022.0 mb 0.06 in1.5 mm 0.12 in3.0 mm 0.37 in9.4 mm
04:24 AM 42.4°F5.8°C 41.6°F5.3°C 97% 2.2 mph NNE3.5 kmh NNE 6.0 mph9.7 kmh 30.17 in1021.7 mb 0.07 in1.8 mm 0.12 in3.0 mm 0.38 in9.7 mm
04:29 AM 42.4°F5.8°C 41.6°F5.3°C 97% 3.4 mph NE5.5 kmh NE 8.0 mph12.9 kmh 30.17 in1021.7 mb 0.07 in1.8 mm 0.00 in0.0 mm 0.39 in9.9 mm
04:34 AM 42.4°F5.8°C 41.6°F5.3°C 97% 2.1 mph NNE3.4 kmh NNE 8.0 mph12.9 kmh 30.17 in1021.7 mb 0.08 in2.0 mm 0.12 in3.0 mm 0.40 in10.2 mm
04:39 AM 42.5°F5.8°C 41.7°F5.4°C 97% 2.4 mph NE3.9 kmh NE 8.0 mph12.9 kmh 30.16 in1021.3 mb 0.08 in2.0 mm 0.00 in0.0 mm 0.40 in10.2 mm
04:44 AM 42.5°F5.8°C 41.7°F5.4°C 97% 4.2 mph NE6.8 kmh NE 8.0 mph12.9 kmh 30.16 in1021.3 mb 0.08 in2.0 mm 0.00 in0.0 mm 0.41 in10.4 mm
04:49 AM 42.5°F5.8°C 41.7°F5.4°C 97% 3.6 mph NE5.8 kmh NE 8.0 mph12.9 kmh 30.17 in1021.7 mb 0.09 in2.3 mm 0.12 in3.0 mm 0.42 in10.7 mm
04:54 AM 42.5°F5.8°C 41.7°F5.4°C 97% 3.7 mph NE6.0 kmh NE 8.0 mph12.9 kmh 30.16 in1021.3 mb 0.09 in2.3 mm 0.00 in0.0 mm 0.42 in10.7 mm
04:59 AM 42.6°F5.9°C 41.8°F5.4°C 97% 1.8 mph NE2.9 kmh NE 8.0 mph12.9 kmh 30.16 in1021.3 mb 0.08 in2.0 mm 0.00 in0.0 mm 0.42 in10.7 mm
05:04 AM 42.6°F5.9°C 41.8°F5.4°C 97% 3.0 mph NE4.8 kmh NE 8.0 mph12.9 kmh 30.16 in1021.3 mb 0.08 in2.0 mm 0.00 in0.0 mm 0.42 in10.7 mm
05:09 AM 42.7°F5.9°C 41.9°F5.5°C 97% 1.6 mph NE2.6 kmh NE 8.0 mph12.9 kmh 30.16 in1021.3 mb 0.08 in2.0 mm 0.00 in0.0 mm 0.43 in10.9 mm
05:14 AM 42.7°F5.9°C 41.9°F5.5°C 97% 2.4 mph NNE3.9 kmh NNE 9.0 mph14.5 kmh 30.16 in1021.3 mb 0.07 in1.8 mm 0.00 in0.0 mm 0.43 in10.9 mm
05:19 AM 42.7°F5.9°C 41.9°F5.5°C 97% 2.7 mph NNE4.3 kmh NNE 9.0 mph14.5 kmh 30.16 in1021.3 mb 0.06 in1.5 mm 0.00 in0.0 mm 0.43 in10.9 mm
05:24 AM 42.8°F6.0°C 42.0°F5.6°C 97% 1.7 mph NE2.7 kmh NE 9.0 mph14.5 kmh 30.16 in1021.3 mb 0.05 in1.3 mm 0.00 in0.0 mm 0.43 in10.9 mm
05:29 AM 42.8°F6.0°C 42.0°F5.6°C 97% 4.1 mph NNE6.6 kmh NNE 9.0 mph14.5 kmh 30.15 in1021.0 mb 0.05 in1.3 mm 0.00 in0.0 mm 0.44 in11.2 mm
05:34 AM 42.9°F6.1°C 42.1°F5.6°C 97% 1.9 mph NNE3.1 kmh NNE 9.0 mph14.5 kmh 30.15 in1021.0 mb 0.05 in1.3 mm 0.00 in0.0 mm 0.45 in11.4 mm
05:39 AM 42.9°F6.1°C 42.1°F5.6°C 97% 3.4 mph NE5.5 kmh NE 9.0 mph14.5 kmh 30.15 in1021.0 mb 0.05 in1.3 mm 0.00 in0.0 mm 0.45 in11.4 mm
05:44 AM 42.9°F6.1°C 42.1°F5.6°C 97% 5.4 mph NE8.7 kmh NE 13.0 mph20.9 kmh 30.14 in1020.7 mb 0.05 in1.3 mm 0.00 in0.0 mm 0.46 in11.7 mm
05:49 AM 42.9°F6.1°C 42.1°F5.6°C 97% 4.5 mph NE7.2 kmh NE 13.0 mph20.9 kmh 30.14 in1020.7 mb 0.04 in1.0 mm 0.00 in0.0 mm 0.46 in11.7 mm
05:54 AM 43.0°F6.1°C 42.2°F5.7°C 97% 5.4 mph NE8.7 kmh NE 13.0 mph20.9 kmh 30.14 in1020.7 mb 0.05 in1.3 mm 0.12 in3.0 mm 0.47 in11.9 mm
05:59 AM 43.0°F6.1°C 42.2°F5.7°C 97% 4.6 mph NE7.4 kmh NE 13.0 mph20.9 kmh 30.14 in1020.7 mb 0.05 in1.3 mm 0.00 in0.0 mm 0.47 in11.9 mm
06:04 AM 43.0°F6.1°C 42.2°F5.7°C 97% 4.5 mph NE7.2 kmh NE 10.0 mph16.1 kmh 30.15 in1021.0 mb 0.05 in1.3 mm 0.00 in0.0 mm 0.47 in11.9 mm
06:09 AM 43.1°F6.2°C 42.3°F5.7°C 97% 5.1 mph NE8.2 kmh NE 10.0 mph16.1 kmh 30.14 in1020.7 mb 0.05 in1.3 mm 0.00 in0.0 mm 0.48 in12.2 mm
06:14 AM 43.1°F6.2°C 42.3°F5.7°C 97% 4.2 mph NE6.8 kmh NE 12.0 mph19.3 kmh 30.14 in1020.7 mb 0.05 in1.3 mm 0.00 in0.0 mm 0.48 in12.2 mm
06:19 AM 43.1°F6.2°C 42.3°F5.7°C 97% 3.6 mph NE5.8 kmh NE 12.0 mph19.3 kmh 30.14 in1020.7 mb 0.05 in1.3 mm 0.00 in0.0 mm 0.48 in12.2 mm
06:24 AM 43.1°F6.2°C 42.3°F5.7°C 97% 4.2 mph NE6.8 kmh NE 12.0 mph19.3 kmh 30.14 in1020.7 mb 0.06 in1.5 mm 0.12 in3.0 mm 0.49 in12.4 mm
06:29 AM 43.2°F6.2°C 42.4°F5.8°C 97% 4.2 mph NE6.8 kmh NE 11.0 mph17.7 kmh 30.14 in1020.7 mb 0.05 in1.3 mm 0.00 in0.0 mm 0.49 in12.4 mm
06:34 AM 43.3°F6.3°C 42.5°F5.8°C 97% 3.5 mph NE5.6 kmh NE 9.0 mph14.5 kmh 30.14 in1020.7 mb 0.04 in1.0 mm 0.00 in0.0 mm 0.49 in12.4 mm
06:39 AM 43.3°F6.3°C 42.5°F5.8°C 97% 4.8 mph NE7.7 kmh NE 10.0 mph16.1 kmh 30.14 in1020.7 mb 0.05 in1.3 mm 0.12 in3.0 mm 0.50 in12.7 mm
06:44 AM 43.3°F6.3°C 42.5°F5.8°C 97% 2.0 mph NNE3.2 kmh NNE 10.0 mph16.1 kmh 30.14 in1020.7 mb 0.04 in1.0 mm 0.00 in0.0 mm 0.50 in12.7 mm
06:49 AM 43.3°F6.3°C 42.5°F5.8°C 97% 1.3 mph NNE2.1 kmh NNE 10.0 mph16.1 kmh 30.14 in1020.7 mb 0.05 in1.3 mm 0.12 in3.0 mm 0.51 in13.0 mm
06:54 AM 43.4°F6.3°C 42.6°F5.9°C 97% 1.7 mph NE2.7 kmh NE 10.0 mph16.1 kmh 30.14 in1020.7 mb 0.04 in1.0 mm 0.00 in0.0 mm 0.51 in13.0 mm
06:59 AM 43.5°F6.4°C 42.7°F5.9°C 97% 1.6 mph N2.6 kmh N 9.0 mph14.5 kmh 30.14 in1020.7 mb 0.04 in1.0 mm 0.00 in0.0 mm 0.51 in13.0 mm
07:04 AM 43.6°F6.4°C 42.8°F6.0°C 97% 2.3 mph NNE3.7 kmh NNE 8.0 mph12.9 kmh 30.15 in1021.0 mb 0.05 in1.3 mm 0.01 in0.3 mm 0.52 in13.2 mm
07:09 AM 43.6°F6.4°C 43.0°F6.1°C 98% 3.2 mph NE5.1 kmh NE 8.0 mph12.9 kmh 30.15 in1021.0 mb 0.05 in1.3 mm 0.00 in0.0 mm 0.53 in13.5 mm
07:14 AM 43.6°F6.4°C 43.0°F6.1°C 98% 1.8 mph NE2.9 kmh NE 7.0 mph11.3 kmh 30.15 in1021.0 mb 0.06 in1.5 mm 0.12 in3.0 mm 0.54 in13.7 mm
07:19 AM 43.7°F6.5°C 43.1°F6.2°C 98% 2.0 mph NNE3.2 kmh NNE 7.0 mph11.3 kmh 30.15 in1021.0 mb 0.07 in1.8 mm 0.12 in3.0 mm 0.55 in14.0 mm
07:24 AM 43.7°F6.5°C 43.2°F6.2°C 98% 1.1 mph N1.8 kmh N 7.0 mph11.3 kmh 30.15 in1021.0 mb 0.06 in1.5 mm 0.00 in0.0 mm 0.55 in14.0 mm
07:29 AM 43.8°F6.6°C 43.2°F6.2°C 98% 2.4 mph NE3.9 kmh NE 7.0 mph11.3 kmh 30.15 in1021.0 mb 0.07 in1.8 mm 0.12 in3.0 mm 0.56 in14.2 mm
07:34 AM 43.8°F6.6°C 43.2°F6.2°C 98% 2.9 mph NE4.7 kmh NE 8.0 mph12.9 kmh 30.15 in1021.0 mb 0.06 in1.5 mm 0.00 in0.0 mm 0.56 in14.2 mm
07:39 AM 43.9°F6.6°C 43.3°F6.3°C 98% 1.9 mph NE3.1 kmh NE 8.0 mph12.9 kmh 30.15 in1021.0 mb 0.07 in1.8 mm 0.12 in3.0 mm 0.57 in14.5 mm
07:44 AM 44.0°F6.7°C 43.4°F6.3°C 98% 2.0 mph NE3.2 kmh NE 8.0 mph12.9 kmh 30.15 in1021.0 mb 0.08 in2.0 mm 0.12 in3.0 mm 0.58 in14.7 mm
07:49 AM 44.0°F6.7°C 43.4°F6.3°C 98% 3.7 mph NE6.0 kmh NE 8.0 mph12.9 kmh 30.15 in1021.0 mb 0.08 in2.0 mm 0.00 in0.0 mm 0.59 in15.0 mm
07:54 AM 44.0°F6.7°C 43.4°F6.3°C 98% 2.5 mph NNE4.0 kmh NNE 7.0 mph11.3 kmh 30.15 in1021.0 mb 0.08 in2.0 mm 0.00 in0.0 mm 0.59 in15.0 mm
07:59 AM 44.1°F6.7°C 43.5°F6.4°C 98% 3.2 mph NE5.1 kmh NE 9.0 mph14.5 kmh 30.15 in1021.0 mb 0.09 in2.3 mm 0.12 in3.0 mm 0.60 in15.2 mm
08:04 AM 44.1°F6.7°C 43.5°F6.4°C 98% 3.0 mph NE4.8 kmh NE 9.0 mph14.5 kmh 30.15 in1021.0 mb 0.08 in2.0 mm 0.00 in0.0 mm 0.60 in15.2 mm
08:09 AM 44.1°F6.7°C 43.5°F6.4°C 98% 4.0 mph NNE6.4 kmh NNE 9.0 mph14.5 kmh 30.15 in1021.0 mb 0.07 in1.8 mm 0.00 in0.0 mm 0.60 in15.2 mm
08:14 AM 44.2°F6.8°C 43.7°F6.5°C 98% 1.9 mph NE3.1 kmh NE 9.0 mph14.5 kmh 30.14 in1020.7 mb 0.06 in1.5 mm 0.00 in0.0 mm 0.60 in15.2 mm
08:19 AM 44.2°F6.8°C 43.7°F6.5°C 98% 3.8 mph NE6.1 kmh NE 10.0 mph16.1 kmh 30.15 in1021.0 mb 0.06 in1.5 mm 0.00 in0.0 mm 0.61 in15.5 mm
08:24 AM 44.3°F6.8°C 43.7°F6.5°C 98% 4.4 mph NE7.1 kmh NE 10.0 mph16.1 kmh 30.15 in1021.0 mb 0.06 in1.5 mm 0.00 in0.0 mm 0.61 in15.5 mm
08:29 AM 44.3°F6.8°C 43.7°F6.5°C 98% 3.9 mph NE6.3 kmh NE 10.0 mph16.1 kmh 30.15 in1021.0 mb 0.05 in1.3 mm 0.00 in0.0 mm 0.61 in15.5 mm
08:34 AM 44.4°F6.9°C 43.8°F6.6°C 98% 3.4 mph NNE5.5 kmh NNE 10.0 mph16.1 kmh 30.15 in1021.0 mb 0.05 in1.3 mm 0.00 in0.0 mm 0.61 in15.5 mm
08:39 AM 44.4°F6.9°C 43.8°F6.6°C 98% 3.8 mph NE6.1 kmh NE 11.0 mph17.7 kmh 30.15 in1021.0 mb 0.05 in1.3 mm 0.00 in0.0 mm 0.62 in15.7 mm
08:44 AM 44.4°F6.9°C 43.8°F6.6°C 98% 4.6 mph NE7.4 kmh NE 11.0 mph17.7 kmh 30.15 in1021.0 mb 0.04 in1.0 mm 0.00 in0.0 mm 0.62 in15.7 mm
08:49 AM 44.5°F6.9°C 43.9°F6.6°C 98% 5.5 mph NE8.9 kmh NE 11.0 mph17.7 kmh 30.15 in1021.0 mb 0.03 in0.8 mm 0.00 in0.0 mm 0.62 in15.7 mm
08:54 AM 44.6°F7.0°C 44.0°F6.7°C 98% 4.4 mph NE7.1 kmh NE 11.0 mph17.7 kmh 30.15 in1021.0 mb 0.03 in0.8 mm 0.00 in0.0 mm 0.62 in15.7 mm
08:58 AM 44.7°F7.1°C 44.1°F6.7°C 98% 5.2 mph NE8.4 kmh NE 13.0 mph20.9 kmh 30.15 in1021.0 mb 0.03 in0.8 mm 0.00 in0.0 mm 0.63 in16.0 mm
09:03 AM 44.7°F7.1°C 44.2°F6.8°C 98% 5.0 mph NE8.0 kmh NE 13.0 mph20.9 kmh 30.14 in1020.7 mb 0.04 in1.0 mm 0.01 in0.3 mm 0.64 in16.3 mm
09:08 AM 44.8°F7.1°C 44.2°F6.8°C 98% 8.3 mph NE13.4 kmh NE 15.0 mph24.1 kmh 30.14 in1020.7 mb 0.04 in1.0 mm 0.00 in0.0 mm 0.64 in16.3 mm
09:13 AM 44.9°F7.2°C 44.3°F6.8°C 98% 6.7 mph NE10.8 kmh NE 15.0 mph24.1 kmh 30.14 in1020.7 mb 0.05 in1.3 mm 0.12 in3.0 mm 0.65 in16.5 mm
09:18 AM 45.0°F7.2°C 44.4°F6.9°C 98% 6.0 mph NE9.7 kmh NE 15.0 mph24.1 kmh 30.14 in1020.7 mb 0.05 in1.3 mm 0.00 in0.0 mm 0.66 in16.8 mm
09:23 AM 45.0°F7.2°C 44.4°F6.9°C 98% 4.2 mph NE6.8 kmh NE 15.0 mph24.1 kmh 30.14 in1020.7 mb 0.05 in1.3 mm 0.00 in0.0 mm 0.66 in16.8 mm
09:25 AM 45.1°F7.3°C 44.5°F6.9°C 98% 5.8 mph NE9.3 kmh NE 18.0 mph29.0 kmh 30.14 in1020.7 mb 0.05 in1.3 mm 0.00 in0.0 mm 0.66 in16.8 mm
09:30 AM 45.3°F7.4°C 44.8°F7.1°C 98% 4.3 mph NE6.9 kmh NE 18.0 mph29.0 kmh 30.14 in1020.7 mb 0.05 in1.3 mm 0.00 in0.0 mm 0.66 in16.8 mm
09:35 AM 45.4°F7.4°C 44.8°F7.1°C 98% 3.2 mph NE5.1 kmh NE 18.0 mph29.0 kmh 30.14 in1020.7 mb 0.06 in1.5 mm 0.12 in3.0 mm 0.67 in17.0 mm
09:40 AM 45.4°F7.4°C 44.8°F7.1°C 98% 5.3 mph NE8.5 kmh NE 18.0 mph29.0 kmh 30.14 in1020.7 mb 0.05 in1.3 mm 0.00 in0.0 mm 0.67 in17.0 mm
09:45 AM 45.4°F7.4°C 44.8°F7.1°C 98% 3.2 mph NE5.1 kmh NE 13.0 mph20.9 kmh 30.14 in1020.7 mb 0.05 in1.3 mm 0.00 in0.0 mm 0.67 in17.0 mm
09:50 AM 45.5°F7.5°C 44.9°F7.2°C 98% 4.6 mph NE7.4 kmh NE 13.0 mph20.9 kmh 30.14 in1020.7 mb 0.05 in1.3 mm 0.00 in0.0 mm 0.67 in17.0 mm
09:55 AM 45.6°F7.6°C 45.0°F7.2°C 98% 3.3 mph NNE5.3 kmh NNE 13.0 mph20.9 kmh 30.14 in1020.7 mb 0.04 in1.0 mm 0.00 in0.0 mm 0.67 in17.0 mm
10:00 AM 45.7°F7.6°C 45.2°F7.3°C 98% 3.3 mph NE5.3 kmh NE 12.0 mph19.3 kmh 30.14 in1020.7 mb 0.03 in0.8 mm 0.00 in0.0 mm 0.67 in17.0 mm
10:05 AM 45.8°F7.7°C 45.3°F7.4°C 98% 3.7 mph NE6.0 kmh NE 11.0 mph17.7 kmh 30.14 in1020.7 mb 0.03 in0.8 mm 0.00 in0.0 mm 0.67 in17.0 mm
10:10 AM 45.8°F7.7°C 45.2°F7.3°C 98% 3.6 mph NE5.8 kmh NE 11.0 mph17.7 kmh 30.15 in1021.0 mb 0.03 in0.8 mm 0.00 in0.0 mm 0.67 in17.0 mm
10:15 AM 45.8°F7.7°C 45.2°F7.3°C 98% 5.6 mph NE9.0 kmh NE 14.0 mph22.5 kmh 30.15 in1021.0 mb 0.02 in0.5 mm 0.00 in0.0 mm 0.67 in17.0 mm
10:20 AM 45.9°F7.7°C 45.3°F7.4°C 98% 4.4 mph NE7.1 kmh NE 14.0 mph22.5 kmh 30.15 in1021.0 mb 0.01 in0.3 mm 0.00 in0.0 mm 0.67 in17.0 mm
10:25 AM 45.9°F7.7°C 45.4°F7.4°C 98% 3.0 mph NE4.8 kmh NE 14.0 mph22.5 kmh 30.15 in1021.0 mb 0.01 in0.3 mm 0.00 in0.0 mm 0.67 in17.0 mm
10:30 AM 46.1°F7.8°C 45.5°F7.5°C 98% 3.3 mph NNE5.3 kmh NNE 14.0 mph22.5 kmh 30.15 in1021.0 mb 0.01 in0.3 mm 0.00 in0.0 mm 0.67 in17.0 mm
10:35 AM 46.2°F7.9°C 45.6°F7.6°C 98% 2.9 mph NE4.7 kmh NE 10.0 mph16.1 kmh 30.15 in1021.0 mb 0.00 in0.0 mm 0.00 in0.0 mm 0.67 in17.0 mm
10:40 AM 46.2°F7.9°C 45.6°F7.6°C 98% 4.4 mph NE7.1 kmh NE 12.0 mph19.3 kmh 30.14 in1020.7 mb 0.01 in0.3 mm 0.12 in3.0 mm 0.68 in17.3 mm
10:45 AM 46.4°F8.0°C 45.8°F7.7°C 98% 3.4 mph NE5.5 kmh NE 12.0 mph19.3 kmh 30.14 in1020.7 mb 0.01 in0.3 mm 0.00 in0.0 mm 0.68 in17.3 mm
10:50 AM 46.4°F8.0°C 45.8°F7.7°C 98% 5.0 mph NE8.0 kmh NE 12.0 mph19.3 kmh 30.13 in1020.3 mb 0.01 in0.3 mm 0.00 in0.0 mm 0.68 in17.3 mm
10:55 AM 46.6°F8.1°C 46.0°F7.8°C 98% 6.3 mph NE10.1 kmh NE 12.0 mph19.3 kmh 30.13 in1020.3 mb 0.01 in0.3 mm 0.00 in0.0 mm 0.68 in17.3 mm
11:00 AM 46.5°F8.1°C 45.9°F7.7°C 98% 6.6 mph NE10.6 kmh NE 14.0 mph22.5 kmh 30.13 in1020.3 mb 0.01 in0.3 mm 0.00 in0.0 mm 0.68 in17.3 mm
11:05 AM 46.6°F8.1°C 46.0°F7.8°C 98% 6.0 mph NE9.7 kmh NE 14.0 mph22.5 kmh 30.13 in1020.3 mb 0.01 in0.3 mm 0.00 in0.0 mm 0.68 in17.3 mm
11:10 AM 46.7°F8.2°C 46.1°F7.8°C 98% 7.5 mph NE12.1 kmh NE 14.0 mph22.5 kmh 30.13 in1020.3 mb 0.01 in0.3 mm 0.00 in0.0 mm 0.68 in17.3 mm
11:15 AM 46.8°F8.2°C 46.2°F7.9°C 98% 4.8 mph NNE7.7 kmh NNE 14.0 mph22.5 kmh 30.13 in1020.3 mb 0.01 in0.3 mm 0.00 in0.0 mm 0.68 in17.3 mm
11:20 AM 46.8°F8.2°C 46.2°F7.9°C 98% 7.3 mph NE11.7 kmh NE 15.0 mph24.1 kmh 30.13 in1020.3 mb 0.01 in0.3 mm 0.00 in0.0 mm 0.68 in17.3 mm
11:25 AM 46.8°F8.2°C 46.2°F7.9°C 98% 5.4 mph NE8.7 kmh NE 15.0 mph24.1 kmh 30.13 in1020.3 mb 0.01 in0.3 mm 0.00 in0.0 mm 0.68 in17.3 mm
11:30 AM 47.0°F8.3°C 46.4°F8.0°C 98% 3.9 mph NE6.3 kmh NE 15.0 mph24.1 kmh 30.13 in1020.3 mb 0.01 in0.3 mm 0.00 in0.0 mm 0.68 in17.3 mm
11:35 AM 47.0°F8.3°C 46.5°F8.1°C 98% 3.1 mph NNE5.0 kmh NNE 15.0 mph24.1 kmh 30.13 in1020.3 mb 0.01 in0.3 mm 0.00 in0.0 mm 0.68 in17.3 mm
11:40 AM 47.0°F8.3°C 46.4°F8.0°C 98% 3.4 mph NNE5.5 kmh NNE 11.0 mph17.7 kmh 30.13 in1020.3 mb 0.00 in0.0 mm 0.00 in0.0 mm 0.68 in17.3 mm
11:45 AM 46.8°F8.2°C 46.2°F7.9°C 98% 5.2 mph NE8.4 kmh NE 12.0 mph19.3 kmh 30.13 in1020.3 mb 0.01 in0.3 mm 0.12 in3.0 mm 0.69 in17.5 mm
11:50 AM 46.8°F8.2°C 46.2°F7.9°C 98% 3.0 mph NNE4.8 kmh NNE 12.0 mph19.3 kmh 30.12 in1020.0 mb 0.01 in0.3 mm 0.00 in0.0 mm 0.69 in17.5 mm
11:55 AM 46.8°F8.2°C 46.2°F7.9°C 98% 3.2 mph NNE5.1 kmh NNE 12.0 mph19.3 kmh 30.12 in1020.0 mb 0.01 in0.3 mm 0.00 in0.0 mm 0.69 in17.5 mm
12:00 PM 46.8°F8.2°C 46.2°F7.9°C 98% 3.9 mph NE6.3 kmh NE 15.0 mph24.1 kmh 30.12 in1020.0 mb 0.02 in0.5 mm 0.01 in0.3 mm 0.70 in17.8 mm
12:05 PM 46.9°F8.3°C 46.3°F7.9°C 98% 2.1 mph N3.4 kmh N 15.0 mph24.1 kmh 30.12 in1020.0 mb 0.03 in0.8 mm 0.12 in3.0 mm 0.71 in18.0 mm
12:10 PM 47.1°F8.4°C 46.6°F8.1°C 98% 2.6 mph NNE4.2 kmh NNE 15.0 mph24.1 kmh 30.12 in1020.0 mb 0.05 in1.3 mm 0.24 in6.1 mm 0.73 in18.5 mm
12:15 PM 47.1°F8.4°C 46.6°F8.1°C 98% 4.0 mph NNE6.4 kmh NNE 15.0 mph24.1 kmh 30.11 in1019.6 mb 0.06 in1.5 mm 0.12 in3.0 mm 0.74 in18.8 mm
12:20 PM 47.2°F8.4°C 46.6°F8.1°C 98% 2.4 mph N3.9 kmh N 11.0 mph17.7 kmh 30.11 in1019.6 mb 0.07 in1.8 mm 0.12 in3.0 mm 0.75 in19.1 mm
12:25 PM 47.1°F8.4°C 46.5°F8.1°C 98% 3.8 mph NNE6.1 kmh NNE 10.0 mph16.1 kmh 30.11 in1019.6 mb 0.07 in1.8 mm 0.00 in0.0 mm 0.75 in19.1 mm
12:30 PM 47.0°F8.3°C 46.4°F8.0°C 98% 4.8 mph NE7.7 kmh NE 12.0 mph19.3 kmh 30.11 in1019.6 mb 0.08 in2.0 mm 0.12 in3.0 mm 0.76 in19.3 mm
12:35 PM 47.1°F8.4°C 46.5°F8.1°C 98% 2.8 mph NNE4.5 kmh NNE 12.0 mph19.3 kmh 30.10 in1019.3 mb 0.08 in2.0 mm 0.00 in0.0 mm 0.76 in19.3 mm
12:40 PM 47.1°F8.4°C 46.6°F8.1°C 98% 4.7 mph NNE7.6 kmh NNE 12.0 mph19.3 kmh 30.10 in1019.3 mb 0.08 in2.0 mm 0.00 in0.0 mm 0.76 in19.3 mm
12:45 PM 47.1°F8.4°C 46.5°F8.1°C 98% 5.4 mph NE8.7 kmh NE 13.0 mph20.9 kmh 30.10 in1019.3 mb 0.07 in1.8 mm 0.00 in0.0 mm 0.76 in19.3 mm
12:50 PM 47.1°F8.4°C 46.5°F8.1°C 98% 3.8 mph NE6.1 kmh NE 13.0 mph20.9 kmh 30.10 in1019.3 mb 0.08 in2.0 mm 0.12 in3.0 mm 0.77 in19.6 mm
12:55 PM 47.1°F8.4°C 46.5°F8.1°C 98% 3.7 mph NNE6.0 kmh NNE 13.0 mph20.9 kmh 30.10 in1019.3 mb 0.08 in2.0 mm 0.00 in0.0 mm 0.77 in19.6 mm
01:00 PM 47.1°F8.4°C 46.5°F8.1°C 98% 4.2 mph NE6.8 kmh NE 13.0 mph20.9 kmh 30.10 in1019.3 mb 0.07 in1.8 mm 0.00 in0.0 mm 0.77 in19.6 mm
01:05 PM 47.1°F8.4°C 46.5°F8.1°C 98% 2.2 mph NNE3.5 kmh NNE 12.0 mph19.3 kmh 30.09 in1019.0 mb 0.06 in1.5 mm 0.00 in0.0 mm 0.77 in19.6 mm
01:10 PM 47.1°F8.4°C 46.5°F8.1°C 98% 3.6 mph NNE5.8 kmh NNE 12.0 mph19.3 kmh 30.09 in1019.0 mb 0.04 in1.0 mm 0.00 in0.0 mm 0.77 in19.6 mm
01:15 PM 46.9°F8.3°C 46.1°F7.8°C 97% 5.8 mph NE9.3 kmh NE 13.0 mph20.9 kmh 30.09 in1019.0 mb 0.04 in1.0 mm 0.00 in0.0 mm 0.78 in19.8 mm
01:20 PM 46.9°F8.3°C 46.3°F7.9°C 98% 2.6 mph NNE4.2 kmh NNE 13.0 mph20.9 kmh 30.09 in1019.0 mb 0.03 in0.8 mm 0.00 in0.0 mm 0.78 in19.8 mm
01:25 PM 46.7°F8.2°C 45.9°F7.7°C 97% 5.9 mph NNE9.5 kmh NNE 16.0 mph25.7 kmh 30.09 in1019.0 mb 0.03 in0.8 mm 0.00 in0.0 mm 0.78 in19.8 mm
01:30 PM 46.8°F8.2°C 46.0°F7.8°C 97% 3.3 mph NE5.3 kmh NE 16.0 mph25.7 kmh 30.08 in1018.6 mb 0.02 in0.5 mm 0.00 in0.0 mm 0.78 in19.8 mm
01:35 PM 46.7°F8.2°C 45.9°F7.7°C 97% 4.8 mph N7.7 kmh N 16.0 mph25.7 kmh 30.08 in1018.6 mb 0.02 in0.5 mm 0.00 in0.0 mm 0.78 in19.8 mm
01:40 PM 46.6°F8.1°C 45.8°F7.7°C 97% 2.2 mph N3.5 kmh N 16.0 mph25.7 kmh 30.09 in1019.0 mb 0.02 in0.5 mm 0.00 in0.0 mm 0.78 in19.8 mm
01:45 PM 46.4°F8.0°C 45.6°F7.6°C 97% 5.6 mph NE9.0 kmh NE 18.0 mph29.0 kmh 30.08 in1018.6 mb 0.03 in0.8 mm 0.12 in3.0 mm 0.79 in20.1 mm
01:50 PM 46.4°F8.0°C 45.6°F7.6°C 97% 4.5 mph NNE7.2 kmh NNE 18.0 mph29.0 kmh 30.08 in1018.6 mb 0.02 in0.5 mm 0.00 in0.0 mm 0.79 in20.1 mm
01:55 PM 46.4°F8.0°C 45.6°F7.6°C 97% 4.6 mph NNE7.4 kmh NNE 18.0 mph29.0 kmh 30.08 in1018.6 mb 0.02 in0.5 mm 0.00 in0.0 mm 0.79 in20.1 mm
02:00 PM 46.5°F8.1°C 45.7°F7.6°C 97% 5.2 mph NE8.4 kmh NE 18.0 mph29.0 kmh 30.08 in1018.6 mb 0.02 in0.5 mm 0.00 in0.0 mm 0.79 in20.1 mm
02:05 PM 46.6°F8.1°C 45.8°F7.7°C 97% 4.0 mph NE6.4 kmh NE 12.0 mph19.3 kmh 30.08 in1018.6 mb 0.02 in0.5 mm 0.00 in0.0 mm 0.79 in20.1 mm
02:10 PM 46.7°F8.2°C 45.9°F7.7°C 97% 3.4 mph NNE5.5 kmh NNE 12.0 mph19.3 kmh 30.08 in1018.6 mb 0.03 in0.8 mm 0.12 in3.0 mm 0.80 in20.3 mm
02:15 PM 46.4°F8.0°C 45.6°F7.6°C 97% 4.7 mph NNE7.6 kmh NNE 12.0 mph19.3 kmh 30.08 in1018.6 mb 0.02 in0.5 mm 0.00 in0.0 mm 0.80 in20.3 mm
02:20 PM 46.2°F7.9°C 45.4°F7.4°C 97% 3.2 mph N5.1 kmh N 11.0 mph17.7 kmh 30.08 in1018.6 mb 0.03 in0.8 mm 0.12 in3.0 mm 0.81 in20.6 mm
02:26 PM 46.4°F8.0°C 45.6°F7.6°C 97% 1.4 mph N2.3 kmh N 9.0 mph14.5 kmh 30.08 in1018.6 mb 0.03 in0.8 mm 0.00 in0.0 mm 0.81 in20.6 mm
02:31 PM 46.3°F7.9°C 45.5°F7.5°C 97% 2.7 mph N4.3 kmh N 9.0 mph14.5 kmh 30.07 in1018.3 mb 0.04 in1.0 mm 0.12 in3.0 mm 0.82 in20.8 mm
02:35 PM 46.1°F7.8°C 45.3°F7.4°C 97% 2.5 mph NNE4.0 kmh NNE 15.0 mph24.1 kmh 30.07 in1018.3 mb 0.04 in1.0 mm 0.00 in0.0 mm 0.82 in20.8 mm
02:41 PM 46.0°F7.8°C 45.2°F7.3°C 97% 2.8 mph NNE4.5 kmh NNE 15.0 mph24.1 kmh 30.07 in1018.3 mb 0.04 in1.0 mm 0.00 in0.0 mm 0.82 in20.8 mm
02:46 PM 46.0°F7.8°C 45.2°F7.3°C 97% 3.8 mph NNE6.1 kmh NNE 15.0 mph24.1 kmh 30.07 in1018.3 mb 0.03 in0.8 mm 0.00 in0.0 mm 0.82 in20.8 mm
02:51 PM 46.0°F7.8°C 45.2°F7.3°C 97% 3.6 mph NNE5.8 kmh NNE 15.0 mph24.1 kmh 30.07 in1018.3 mb 0.03 in0.8 mm 0.00 in0.0 mm 0.82 in20.8 mm
02:56 PM 46.1°F7.8°C 45.3°F7.4°C 97% 3.1 mph NNE5.0 kmh NNE 14.0 mph22.5 kmh 30.07 in1018.3 mb 0.03 in0.8 mm 0.00 in0.0 mm 0.82 in20.8 mm
03:01 PM 46.3°F7.9°C 45.5°F7.5°C 97% 3.5 mph N5.6 kmh N 14.0 mph22.5 kmh 30.07 in1018.3 mb 0.04 in1.0 mm 0.01 in0.3 mm 0.83 in21.1 mm
03:06 PM 46.3°F7.9°C 45.5°F7.5°C 97% 3.5 mph NNE5.6 kmh NNE 13.0 mph20.9 kmh 30.07 in1018.3 mb 0.04 in1.0 mm 0.00 in0.0 mm 0.83 in21.1 mm
03:11 PM 46.4°F8.0°C 45.6°F7.6°C 97% 1.3 mph 2.1 kmh 13.0 mph20.9 kmh 30.07 in1018.3 mb 0.03 in0.8 mm 0.00 in0.0 mm 0.83 in21.1 mm
03:16 PM 46.5°F8.1°C 45.7°F7.6°C 97% 3.4 mph NNE5.5 kmh NNE 13.0 mph20.9 kmh 30.07 in1018.3 mb 0.03 in0.8 mm 0.00 in0.0 mm 0.83 in21.1 mm
03:21 PM 46.5°F8.1°C 45.7°F7.6°C 97% 3.2 mph N5.1 kmh N 11.0 mph17.7 kmh 30.07 in1018.3 mb 0.03 in0.8 mm 0.00 in0.0 mm 0.84 in21.3 mm
03:26 PM 46.5°F8.1°C 45.7°F7.6°C 97% 2.5 mph NNE4.0 kmh NNE 11.0 mph17.7 kmh 30.07 in1018.3 mb 0.03 in0.8 mm 0.00 in0.0 mm 0.84 in21.3 mm
03:31 PM 46.4°F8.0°C 45.6°F7.6°C 97% 2.6 mph N4.2 kmh N 11.0 mph17.7 kmh 30.07 in1018.3 mb 0.02 in0.5 mm 0.00 in0.0 mm 0.84 in21.3 mm
03:36 PM 46.5°F8.1°C 45.7°F7.6°C 97% 2.0 mph NNE3.2 kmh NNE 10.0 mph16.1 kmh 30.07 in1018.3 mb 0.03 in0.8 mm 0.12 in3.0 mm 0.85 in21.6 mm
03:41 PM 46.4°F8.0°C 45.6°F7.6°C 97% 5.6 mph NNE9.0 kmh NNE 15.0 mph24.1 kmh 30.06 in1017.9 mb 0.03 in0.8 mm 0.00 in0.0 mm 0.85 in21.6 mm
03:46 PM 46.4°F8.0°C 45.6°F7.6°C 97% 4.0 mph NE6.4 kmh NE 15.0 mph24.1 kmh 30.06 in1017.9 mb 0.04 in1.0 mm 0.12 in3.0 mm 0.86 in21.8 mm
03:51 PM 46.6°F8.1°C 45.8°F7.7°C 97% 3.1 mph NNE5.0 kmh NNE 15.0 mph24.1 kmh 30.07 in1018.3 mb 0.05 in1.3 mm 0.12 in3.0 mm 0.87 in22.1 mm
03:56 PM 46.6°F8.1°C 45.8°F7.7°C 97% 2.6 mph NNE4.2 kmh NNE 15.0 mph24.1 kmh 30.06 in1017.9 mb 0.05 in1.3 mm 0.00 in0.0 mm 0.87 in22.1 mm
04:01 PM 46.6°F8.1°C 45.8°F7.7°C 97% 2.0 mph N3.2 kmh N 13.0 mph20.9 kmh 30.06 in1017.9 mb 0.04 in1.0 mm 0.00 in0.0 mm 0.87 in22.1 mm
04:06 PM 46.5°F8.1°C 45.7°F7.6°C 97% 3.6 mph NNE5.8 kmh NNE 12.0 mph19.3 kmh 30.06 in1017.9 mb 0.04 in1.0 mm 0.00 in0.0 mm 0.87 in22.1 mm
04:11 PM 46.4°F8.0°C 45.6°F7.6°C 97% 2.6 mph N4.2 kmh N 12.0 mph19.3 kmh 30.07 in1018.3 mb 0.04 in1.0 mm 0.00 in0.0 mm 0.87 in22.1 mm
04:16 PM 46.3°F7.9°C 45.5°F7.5°C 97% 2.3 mph N3.7 kmh N 12.0 mph19.3 kmh 30.07 in1018.3 mb 0.05 in1.3 mm 0.12 in3.0 mm 0.88 in22.4 mm
04:21 PM 46.1°F7.8°C 45.3°F7.4°C 97% 4.4 mph NNE7.1 kmh NNE 12.0 mph19.3 kmh 30.07 in1018.3 mb 0.04 in1.0 mm 0.00 in0.0 mm 0.88 in22.4 mm
04:26 PM 46.1°F7.8°C 45.3°F7.4°C 97% 3.5 mph NNE5.6 kmh NNE 11.0 mph17.7 kmh 30.07 in1018.3 mb 0.04 in1.0 mm 0.00 in0.0 mm 0.88 in22.4 mm
04:31 PM 46.1°F7.8°C 45.3°F7.4°C 97% 4.8 mph NNE7.7 kmh NNE 12.0 mph19.3 kmh 30.07 in1018.3 mb 0.04 in1.0 mm 0.00 in0.0 mm 0.88 in22.4 mm
04:36 PM 46.1°F7.8°C 45.3°F7.4°C 97% 4.3 mph N6.9 kmh N 12.0 mph19.3 kmh 30.07 in1018.3 mb 0.04 in1.0 mm 0.00 in0.0 mm 0.89 in22.6 mm
04:41 PM 46.1°F7.8°C 45.3°F7.4°C 97% 2.8 mph N4.5 kmh N 12.0 mph19.3 kmh 30.07 in1018.3 mb 0.04 in1.0 mm 0.00 in0.0 mm 0.90 in22.9 mm
04:46 PM 46.1°F7.8°C 45.3°F7.4°C 97% 3.1 mph N5.0 kmh N 12.0 mph19.3 kmh 30.07 in1018.3 mb 0.06 in1.5 mm 0.24 in6.1 mm 0.92 in23.4 mm
04:51 PM 46.1°F7.8°C 45.3°F7.4°C 97% 3.9 mph N6.3 kmh N 12.0 mph19.3 kmh 30.07 in1018.3 mb 0.05 in1.3 mm 0.00 in0.0 mm 0.92 in23.4 mm
04:56 PM 45.9°F7.7°C 45.1°F7.3°C 97% 6.0 mph N9.7 kmh N 15.0 mph24.1 kmh 30.07 in1018.3 mb 0.06 in1.5 mm 0.12 in3.0 mm 0.93 in23.6 mm
05:01 PM 45.6°F7.6°C 44.8°F7.1°C 97% 5.0 mph NNE8.0 kmh NNE 18.0 mph29.0 kmh 30.07 in1018.3 mb 0.06 in1.5 mm 0.00 in0.0 mm 0.93 in23.6 mm
05:06 PM 45.5°F7.5°C 44.7°F7.1°C 97% 3.4 mph NNE5.5 kmh NNE 18.0 mph29.0 kmh 30.07 in1018.3 mb 0.07 in1.8 mm 0.12 in3.0 mm 0.94 in23.9 mm
05:11 PM 45.4°F7.4°C 44.6°F7.0°C 97% 3.4 mph N5.5 kmh N 18.0 mph29.0 kmh 30.08 in1018.6 mb 0.07 in1.8 mm 0.00 in0.0 mm 0.94 in23.9 mm
05:16 PM 45.0°F7.2°C 44.2°F6.8°C 97% 3.2 mph NNE5.1 kmh NNE 18.0 mph29.0 kmh 30.08 in1018.6 mb 0.06 in1.5 mm 0.00 in0.0 mm 0.94 in23.9 mm
05:21 PM 44.8°F7.1°C 44.0°F6.7°C 97% 3.7 mph NE6.0 kmh NE 14.0 mph22.5 kmh 30.09 in1019.0 mb 0.07 in1.8 mm 0.12 in3.0 mm 0.95 in24.1 mm
05:26 PM 44.7°F7.1°C 43.9°F6.6°C 97% 2.6 mph NNE4.2 kmh NNE 14.0 mph22.5 kmh 30.09 in1019.0 mb 0.07 in1.8 mm 0.00 in0.0 mm 0.95 in24.1 mm
05:31 PM 44.5°F6.9°C 43.7°F6.5°C 97% 4.6 mph N7.4 kmh N 14.0 mph22.5 kmh 30.09 in1019.0 mb 0.08 in2.0 mm 0.12 in3.0 mm 0.96 in24.4 mm
05:36 PM 44.4°F6.9°C 43.6°F6.4°C 97% 3.2 mph NNE5.1 kmh NNE 13.0 mph20.9 kmh 30.09 in1019.0 mb 0.07 in1.8 mm 0.00 in0.0 mm 0.96 in24.4 mm
05:41 PM 44.3°F6.8°C 43.5°F6.4°C 97% 4.3 mph NNE6.9 kmh NNE 13.0 mph20.9 kmh 30.10 in1019.3 mb 0.06 in1.5 mm 0.00 in0.0 mm 0.96 in24.4 mm
05:46 PM 44.3°F6.8°C 43.5°F6.4°C 97% 3.3 mph N5.3 kmh N 13.0 mph20.9 kmh 30.09 in1019.0 mb 0.04 in1.0 mm 0.00 in0.0 mm 0.96 in24.4 mm
05:51 PM 44.2°F6.8°C 43.4°F6.3°C 97% 2.0 mph N3.2 kmh N 13.0 mph20.9 kmh 30.09 in1019.0 mb 0.05 in1.3 mm 0.12 in3.0 mm 0.97 in24.6 mm
05:56 PM 44.3°F6.8°C 43.5°F6.4°C 97% 1.9 mph NNW3.1 kmh NNW 13.0 mph20.9 kmh 30.09 in1019.0 mb 0.04 in1.0 mm 0.00 in0.0 mm 0.98 in24.9 mm
06:01 PM 44.2°F6.8°C 43.4°F6.3°C 97% 3.9 mph N6.3 kmh N 10.0 mph16.1 kmh 30.09 in1019.0 mb 0.06 in1.5 mm 0.02 in0.5 mm 0.99 in25.1 mm
06:06 PM 44.3°F6.8°C 43.5°F6.4°C 97% 2.5 mph NNE4.0 kmh NNE 10.0 mph16.1 kmh 30.09 in1019.0 mb 0.07 in1.8 mm 0.12 in3.0 mm 1.01 in25.7 mm
06:11 PM 44.3°F6.8°C 43.5°F6.4°C 97% 4.2 mph N6.8 kmh N 11.0 mph17.7 kmh 30.09 in1019.0 mb 0.09 in2.3 mm 0.24 in6.1 mm 1.03 in26.2 mm
06:16 PM 44.3°F6.8°C 43.5°F6.4°C 97% 3.5 mph NNE5.6 kmh NNE 11.0 mph17.7 kmh 30.09 in1019.0 mb 0.12 in3.0 mm 0.36 in9.1 mm 1.06 in26.9 mm
06:21 PM 44.4°F6.9°C 43.6°F6.4°C 97% 3.8 mph NNE6.1 kmh NNE 11.0 mph17.7 kmh 30.09 in1019.0 mb 0.13 in3.3 mm 0.12 in3.0 mm 1.08 in27.4 mm
06:26 PM 44.5°F6.9°C 43.7°F6.5°C 97% 4.2 mph N6.8 kmh N 11.0 mph17.7 kmh 30.09 in1019.0 mb 0.14 in3.6 mm 0.12 in3.0 mm 1.09 in27.7 mm
06:31 PM 44.5°F6.9°C 43.7°F6.5°C 97% 4.4 mph N7.1 kmh N 16.0 mph25.7 kmh 30.09 in1019.0 mb 0.13 in3.3 mm 0.00 in0.0 mm 1.09 in27.7 mm
06:36 PM 44.4°F6.9°C 43.6°F6.4°C 97% 3.1 mph N5.0 kmh N 16.0 mph25.7 kmh 30.09 in1019.0 mb 0.14 in3.6 mm 0.12 in3.0 mm 1.10 in27.9 mm
06:41 PM 44.4°F6.9°C 43.6°F6.4°C 97% 3.8 mph N6.1 kmh N 16.0 mph25.7 kmh 30.09 in1019.0 mb 0.14 in3.6 mm 0.00 in0.0 mm 1.10 in27.9 mm
06:46 PM 44.3°F6.8°C 43.5°F6.4°C 97% 2.1 mph N3.4 kmh N 16.0 mph25.7 kmh 30.09 in1019.0 mb 0.13 in3.3 mm 0.00 in0.0 mm 1.10 in27.9 mm
06:51 PM 44.1°F6.7°C 43.3°F6.3°C 97% 2.0 mph NNE3.2 kmh NNE 11.0 mph17.7 kmh 30.10 in1019.3 mb 0.14 in3.6 mm 0.12 in3.0 mm 1.11 in28.2 mm
06:56 PM 43.9°F6.6°C 43.1°F6.2°C 97% 1.6 mph N2.6 kmh N 11.0 mph17.7 kmh 30.10 in1019.3 mb 0.13 in3.3 mm 0.00 in0.0 mm 1.11 in28.2 mm
07:01 PM 43.6°F6.4°C 42.8°F6.0°C 97% 3.7 mph NNE6.0 kmh NNE 11.0 mph17.7 kmh 30.10 in1019.3 mb 0.12 in3.0 mm 0.00 in0.0 mm 1.11 in28.2 mm
07:06 PM 43.5°F6.4°C 42.7°F5.9°C 97% 2.9 mph N4.7 kmh N 11.0 mph17.7 kmh 30.09 in1019.0 mb 0.11 in2.8 mm 0.00 in0.0 mm 1.12 in28.4 mm
07:11 PM 43.5°F6.4°C 42.7°F5.9°C 97% 2.5 mph 4.0 kmh 11.0 mph17.7 kmh 30.09 in1019.0 mb 0.09 in2.3 mm 0.00 in0.0 mm 1.12 in28.4 mm
07:16 PM 43.6°F6.4°C 42.8°F6.0°C 97% 2.9 mph NNW4.7 kmh NNW 11.0 mph17.7 kmh 30.09 in1019.0 mb 0.07 in1.8 mm 0.00 in0.0 mm 1.13 in28.7 mm
07:21 PM 43.5°F6.4°C 42.7°F5.9°C 97% 3.6 mph N5.8 kmh N 10.0 mph16.1 kmh 30.09 in1019.0 mb 0.05 in1.3 mm 0.00 in0.0 mm 1.13 in28.7 mm
07:26 PM 43.5°F6.4°C 42.7°F5.9°C 97% 2.2 mph N3.5 kmh N 10.0 mph16.1 kmh 30.09 in1019.0 mb 0.05 in1.3 mm 0.00 in0.0 mm 1.14 in29.0 mm
07:31 PM 43.4°F6.3°C 42.6°F5.9°C 97% 3.2 mph N5.1 kmh N 10.0 mph16.1 kmh 30.09 in1019.0 mb 0.06 in1.5 mm 0.12 in3.0 mm 1.15 in29.2 mm
07:36 PM 43.2°F6.2°C 42.4°F5.8°C 97% 3.1 mph N5.0 kmh N 10.0 mph16.1 kmh 30.09 in1019.0 mb 0.06 in1.5 mm 0.00 in0.0 mm 1.16 in29.5 mm
07:41 PM 43.1°F6.2°C 42.3°F5.7°C 97% 2.2 mph NNE3.5 kmh NNE 9.0 mph14.5 kmh 30.09 in1019.0 mb 0.06 in1.5 mm 0.00 in0.0 mm 1.16 in29.5 mm
07:46 PM 43.1°F6.2°C 42.3°F5.7°C 97% 4.5 mph NNE7.2 kmh NNE 10.0 mph16.1 kmh 30.09 in1019.0 mb 0.06 in1.5 mm 0.00 in0.0 mm 1.16 in29.5 mm
07:51 PM 43.0°F6.1°C 42.2°F5.7°C 97% 3.2 mph N5.1 kmh N 10.0 mph16.1 kmh 30.09 in1019.0 mb 0.07 in1.8 mm 0.12 in3.0 mm 1.18 in30.0 mm
07:56 PM 42.9°F6.1°C 42.1°F5.6°C 97% 2.2 mph NNE3.5 kmh NNE 10.0 mph16.1 kmh 30.09 in1019.0 mb 0.08 in2.0 mm 0.12 in3.0 mm 1.19 in30.2 mm
08:01 PM 42.9°F6.1°C 42.1°F5.6°C 97% 2.2 mph NNE3.5 kmh NNE 10.0 mph16.1 kmh 30.09 in1019.0 mb 0.09 in2.3 mm 0.01 in0.3 mm 1.20 in30.5 mm
08:06 PM 42.9°F6.1°C 42.1°F5.6°C 97% 5.4 mph NNE8.7 kmh NNE 14.0 mph22.5 kmh 30.09 in1019.0 mb 0.10 in2.5 mm 0.12 in3.0 mm 1.22 in31.0 mm
08:11 PM 42.9°F6.1°C 42.1°F5.6°C 97% 2.7 mph NE4.3 kmh NE 14.0 mph22.5 kmh 30.09 in1019.0 mb 0.12 in3.0 mm 0.24 in6.1 mm 1.24 in31.5 mm
08:16 PM 43.0°F6.1°C 42.2°F5.7°C 97% 2.9 mph N4.7 kmh N 14.0 mph22.5 kmh 30.09 in1019.0 mb 0.12 in3.0 mm 0.00 in0.0 mm 1.25 in31.8 mm
08:21 PM 43.1°F6.2°C 42.3°F5.7°C 97% 3.4 mph N5.5 kmh N 14.0 mph22.5 kmh 30.09 in1019.0 mb 0.12 in3.0 mm 0.00 in0.0 mm 1.25 in31.8 mm
08:26 PM 43.1°F6.2°C 42.3°F5.7°C 97% 1.8 mph N2.9 kmh N 8.0 mph12.9 kmh 30.10 in1019.3 mb 0.12 in3.0 mm 0.00 in0.0 mm 1.26 in32.0 mm
08:31 PM 43.1°F6.2°C 42.3°F5.7°C 97% 3.9 mph N6.3 kmh N 13.0 mph20.9 kmh 30.10 in1019.3 mb 0.11 in2.8 mm 0.00 in0.0 mm 1.26 in32.0 mm
08:36 PM 43.1°F6.2°C 42.3°F5.7°C 97% 3.5 mph N5.6 kmh N 13.0 mph20.9 kmh 30.10 in1019.3 mb 0.11 in2.8 mm 0.00 in0.0 mm 1.27 in32.3 mm
08:41 PM 43.1°F6.2°C 42.3°F5.7°C 97% 3.0 mph N4.8 kmh N 13.0 mph20.9 kmh 30.10 in1019.3 mb 0.12 in3.0 mm 0.12 in3.0 mm 1.28 in32.5 mm
08:46 PM 43.1°F6.2°C 42.3°F5.7°C 97% 2.9 mph NNE4.7 kmh NNE 13.0 mph20.9 kmh 30.09 in1019.0 mb 0.12 in3.0 mm 0.00 in0.0 mm 1.28 in32.5 mm
08:51 PM 43.1°F6.2°C 42.3°F5.7°C 97% 4.1 mph N6.6 kmh N 12.0 mph19.3 kmh 30.09 in1019.0 mb 0.11 in2.8 mm 0.00 in0.0 mm 1.29 in32.8 mm
08:56 PM 43.1°F6.2°C 42.0°F5.6°C 96% 4.4 mph N7.1 kmh N 12.0 mph19.3 kmh 30.09 in1019.0 mb 0.11 in2.8 mm 0.00 in0.0 mm 1.30 in33.0 mm
09:01 PM 43.1°F6.2°C 42.3°F5.7°C 97% 3.9 mph N6.3 kmh N 12.0 mph19.3 kmh 30.09 in1019.0 mb 0.11 in2.8 mm 0.00 in0.0 mm 1.31 in33.3 mm
09:06 PM 43.1°F6.2°C 42.0°F5.6°C 96% 2.6 mph N4.2 kmh N 12.0 mph19.3 kmh 30.09 in1019.0 mb 0.09 in2.3 mm 0.00 in0.0 mm 1.31 in33.3 mm
09:11 PM 43.1°F6.2°C 42.3°F5.7°C 97% 3.8 mph N6.1 kmh N 12.0 mph19.3 kmh 30.10 in1019.3 mb 0.08 in2.0 mm 0.00 in0.0 mm 1.32 in33.5 mm
09:16 PM 43.1°F6.2°C 42.3°F5.7°C 97% 4.2 mph NNE6.8 kmh NNE 12.0 mph19.3 kmh 30.10 in1019.3 mb 0.07 in1.8 mm 0.00 in0.0 mm 1.32 in33.5 mm
09:21 PM 43.0°F6.1°C 42.2°F5.7°C 97% 2.4 mph N3.9 kmh N 12.0 mph19.3 kmh 30.10 in1019.3 mb 0.08 in2.0 mm 0.12 in3.0 mm 1.33 in33.8 mm
09:26 PM 43.0°F6.1°C 42.2°F5.7°C 97% 2.9 mph N4.7 kmh N 12.0 mph19.3 kmh 30.10 in1019.3 mb 0.08 in2.0 mm 0.00 in0.0 mm 1.34 in34.0 mm
09:31 PM 43.0°F6.1°C 42.2°F5.7°C 97% 3.5 mph NNE5.6 kmh NNE 10.0 mph16.1 kmh 30.10 in1019.3 mb 0.08 in2.0 mm 0.00 in0.0 mm 1.34 in34.0 mm
09:36 PM 43.0°F6.1°C 42.2°F5.7°C 97% 3.8 mph NNE6.1 kmh NNE 10.0 mph16.1 kmh 30.10 in1019.3 mb 0.08 in2.0 mm 0.00 in0.0 mm 1.35 in34.3 mm
09:41 PM 42.9°F6.1°C 41.8°F5.4°C 96% 2.0 mph N3.2 kmh N 12.0 mph19.3 kmh 30.11 in1019.6 mb 0.08 in2.0 mm 0.00 in0.0 mm 1.36 in34.5 mm
09:46 PM 42.9°F6.1°C 41.8°F5.4°C 96% 2.8 mph NNE4.5 kmh NNE 12.0 mph19.3 kmh 30.11 in1019.6 mb 0.09 in2.3 mm 0.12 in3.0 mm 1.37 in34.8 mm
09:51 PM 42.9°F6.1°C 41.8°F5.4°C 96% 4.0 mph N6.4 kmh N 12.0 mph19.3 kmh 30.11 in1019.6 mb 0.09 in2.3 mm 0.00 in0.0 mm 1.38 in35.1 mm
09:56 PM 42.9°F6.1°C 41.8°F5.4°C 96% 1.8 mph NNE2.9 kmh NNE 12.0 mph19.3 kmh 30.11 in1019.6 mb 0.08 in2.0 mm 0.00 in0.0 mm 1.38 in35.1 mm
10:01 PM 42.9°F6.1°C 41.8°F5.4°C 96% 3.4 mph N5.5 kmh N 10.0 mph16.1 kmh 30.11 in1019.6 mb 0.07 in1.8 mm 0.00 in0.0 mm 1.38 in35.1 mm
10:06 PM 42.9°F6.1°C 41.8°F5.4°C 96% 3.5 mph N5.6 kmh N 10.0 mph16.1 kmh 30.10 in1019.3 mb 0.07 in1.8 mm 0.00 in0.0 mm 1.38 in35.1 mm
10:11 PM 42.9°F6.1°C 41.8°F5.4°C 96% 3.3 mph N5.3 kmh N 10.0 mph16.1 kmh 30.10 in1019.3 mb 0.06 in1.5 mm 0.00 in0.0 mm 1.38 in35.1 mm
10:16 PM 43.0°F6.1°C 41.9°F5.5°C 96% 3.1 mph NNE5.0 kmh NNE 12.0 mph19.3 kmh 30.11 in1019.6 mb 0.06 in1.5 mm 0.00 in0.0 mm 1.38 in35.1 mm
10:21 PM 43.0°F6.1°C 41.9°F5.5°C 96% 2.1 mph NNE3.4 kmh NNE 12.0 mph19.3 kmh 30.11 in1019.6 mb 0.05 in1.3 mm 0.00 in0.0 mm 1.38 in35.1 mm
10:26 PM 42.9°F6.1°C 41.8°F5.4°C 96% 2.4 mph NNE3.9 kmh NNE 12.0 mph19.3 kmh 30.11 in1019.6 mb 0.04 in1.0 mm 0.00 in0.0 mm 1.38 in35.1 mm
10:31 PM 42.9°F6.1°C 41.8°F5.4°C 96% 1.8 mph N2.9 kmh N 12.0 mph19.3 kmh 30.10 in1019.3 mb 0.05 in1.3 mm 0.12 in3.0 mm 1.39 in35.3 mm
10:36 PM 42.9°F6.1°C 41.8°F5.4°C 96% 2.1 mph N3.4 kmh N 8.0 mph12.9 kmh 30.10 in1019.3 mb 0.05 in1.3 mm 0.00 in0.0 mm 1.40 in35.6 mm
10:41 PM 42.8°F6.0°C 41.4°F5.2°C 95% 2.4 mph N3.9 kmh N 8.0 mph12.9 kmh 30.10 in1019.3 mb 0.04 in1.0 mm 0.00 in0.0 mm 1.40 in35.6 mm
10:46 PM 42.8°F6.0°C 41.4°F5.2°C 95% 3.2 mph N5.1 kmh N 10.0 mph16.1 kmh 30.10 in1019.3 mb 0.03 in0.8 mm 0.00 in0.0 mm 1.40 in35.6 mm
10:51 PM 42.9°F6.1°C 41.5°F5.3°C 95% 2.7 mph NNE4.3 kmh NNE 10.0 mph16.1 kmh 30.10 in1019.3 mb 0.02 in0.5 mm 0.00 in0.0 mm 1.40 in35.6 mm
10:56 PM 42.8°F6.0°C 41.5°F5.3°C 95% 3.0 mph 4.8 kmh 10.0 mph16.1 kmh 30.10 in1019.3 mb 0.02 in0.5 mm 0.00 in0.0 mm 1.40 in35.6 mm
11:01 PM 42.8°F6.0°C 41.4°F5.2°C 95% 2.4 mph N3.9 kmh N 10.0 mph16.1 kmh 30.10 in1019.3 mb 0.02 in0.5 mm 0.00 in0.0 mm 1.40 in35.6 mm
11:06 PM 42.8°F6.0°C 41.4°F5.2°C 95% 2.9 mph N4.7 kmh N 10.0 mph16.1 kmh 30.10 in1019.3 mb 0.03 in0.8 mm 0.12 in3.0 mm 1.41 in35.8 mm
11:11 PM 42.6°F5.9°C 41.2°F5.1°C 95% 2.6 mph N4.2 kmh N 10.0 mph16.1 kmh 30.09 in1019.0 mb 0.04 in1.0 mm 0.12 in3.0 mm 1.42 in36.1 mm
11:16 PM 42.5°F5.8°C 41.1°F5.1°C 95% 1.9 mph N3.1 kmh N 10.0 mph16.1 kmh 30.09 in1019.0 mb 0.05 in1.3 mm 0.12 in3.0 mm 1.43 in36.3 mm
11:21 PM 42.4°F5.8°C 41.0°F5.0°C 95% 2.4 mph N3.9 kmh N 9.0 mph14.5 kmh 30.09 in1019.0 mb 0.07 in1.8 mm 0.24 in6.1 mm 1.45 in36.8 mm
11:26 PM 42.4°F5.8°C 41.0°F5.0°C 95% 2.4 mph N3.9 kmh N 9.0 mph14.5 kmh 30.09 in1019.0 mb 0.07 in1.8 mm 0.00 in0.0 mm 1.45 in36.8 mm
11:31 PM 42.3°F5.7°C 40.9°F4.9°C 95% 1.4 mph N2.3 kmh N 9.0 mph14.5 kmh 30.08 in1018.6 mb 0.07 in1.8 mm 0.00 in0.0 mm 1.47 in37.3 mm
11:36 PM 42.3°F5.7°C 40.9°F4.9°C 95% 3.0 mph NNE4.8 kmh NNE 10.0 mph16.1 kmh 30.08 in1018.6 mb 0.07 in1.8 mm 0.00 in0.0 mm 1.47 in37.3 mm
11:41 PM 42.3°F5.7°C 40.9°F4.9°C 95% 1.8 mph N2.9 kmh N 10.0 mph16.1 kmh 30.08 in1018.6 mb 0.07 in1.8 mm 0.00 in0.0 mm 1.47 in37.3 mm
11:46 PM 42.3°F5.7°C 40.9°F4.9°C 95% 2.2 mph NNE3.5 kmh NNE 10.0 mph16.1 kmh 30.07 in1018.3 mb 0.07 in1.8 mm 0.00 in0.0 mm 1.47 in37.3 mm
11:51 PM 42.3°F5.7°C 40.9°F4.9°C 95% 2.9 mph NNE4.7 kmh NNE 10.0 mph16.1 kmh 30.07 in1018.3 mb 0.08 in2.0 mm 0.12 in3.0 mm 1.48 in37.6 mm
11:56 PM 42.3°F5.7°C 40.7°F4.8°C 94% 2.2 mph N3.5 kmh N 10.0 mph16.1 kmh 30.07 in1018.3 mb 0.08 in2.0 mm 0.00 in0.0 mm 1.48 in37.6 mm